SouthEast Lincoln: Weather Underground Data


Davis Vantage Pro Historical Data
 
Daily Summary for November 19, 2017 Units:  English    Metric   Both
« Previous Day
Next Day »
Daily Weekly Monthly Yearly Custom
  Current: High: Low: Average:
Temperature: 26.7 °F 32.0 °F 26.7 °F 29.6 °F
Dew Point: 23.4 °F 26.1 °F 23.2 °F 24.7 °F
Humidity: 87% 87% 78% 82%
Wind Speed: 0.0mph 1.0mph 0.0mph 0.2mph
Wind Gust: 0.0mph 2.0mph - -
Wind:Calm - - NNW
Pressure: 30.28 in 30.29 in 30.27 in -
Precipitation: 0.00 in      
Historical Graphs
 
 
Tabular Data for November 19, 2017
Time Temperature Dew Point Pressure Wind Wind Speed Wind Gust Humidity Rainfall Rate (Hourly) solar
00:04 31.5 °F 26.0 °F 30.27 in NW 1.0 mph 1.0 mph 80% 0.00 in 0.00 W/m2
00:09 31.6 °F 26.1 °F 30.27 in Calm   1.0 mph 80% 0.00 in 0.00 W/m2
00:14 31.7 °F 25.9 °F 30.27 in NW 1.0 mph 1.0 mph 79% 0.00 in 0.00 W/m2
00:19 31.8 °F 26.0 °F 30.27 in NW 1.0 mph 2.0 mph 79% 0.00 in 0.00 W/m2
00:24 31.8 °F 26.0 °F 30.27 in Calm   1.0 mph 79% 0.00 in 0.00 W/m2
00:29 31.9 °F 25.8 °F 30.27 in NW 1.0 mph 1.0 mph 78% 0.00 in 0.00 W/m2
00:34 32.0 °F 25.9 °F 30.28 in Calm     78% 0.00 in 0.00 W/m2
00:39 32.0 °F 25.9 °F 30.28 in Calm   1.0 mph 78% 0.00 in 0.00 W/m2
00:44 31.9 °F 25.8 °F 30.28 in Calm   1.0 mph 78% 0.00 in 0.00 W/m2
00:49 31.8 °F 25.7 °F 30.28 in Calm   2.0 mph 78% 0.00 in 0.00 W/m2
00:54 31.6 °F 25.5 °F 30.27 in Calm     78% 0.00 in 0.00 W/m2
00:59 31.5 °F 25.4 °F 30.27 in Calm   1.0 mph 78% 0.00 in 0.00 W/m2
01:04 31.4 °F 25.6 °F 30.28 in NW 1.0 mph 1.0 mph 79% 0.00 in 0.00 W/m2
01:14 31.3 °F 25.6 °F 30.27 in Calm     79% 0.00 in 0.00 W/m2
01:24 31.0 °F 25.3 °F 30.27 in Calm     79% 0.00 in 0.00 W/m2
01:29 31.0 °F 25.6 °F 30.27 in Calm     80% 0.00 in 0.00 W/m2
01:34 30.8 °F 25.4 °F 30.27 in Calm     80% 0.00 in 0.00 W/m2
01:51 30.2 °F 24.8 °F 30.27 in Calm     80% 0.00 in 0.00 W/m2
01:52 30.2 °F 24.8 °F 30.27 in Calm     80% 0.00 in 0.00 W/m2
01:57 29.9 °F 24.5 °F 30.27 in Calm     80% 0.00 in 0.00 W/m2
02:02 29.8 °F 24.7 °F 30.27 in Calm   1.0 mph 81% 0.00 in 0.00 W/m2
02:07 29.6 °F 24.5 °F 30.27 in Calm     81% 0.00 in 0.00 W/m2
02:12 29.5 °F 24.7 °F 30.28 in NW 1.0 mph 1.0 mph 82% 0.00 in 0.00 W/m2
02:17 29.4 °F 24.6 °F 30.27 in Calm   1.0 mph 82% 0.00 in 0.00 W/m2
02:27 29.3 °F 24.8 °F 30.28 in Calm     83% 0.00 in 0.00 W/m2
02:32 29.3 °F 24.8 °F 30.28 in Calm     83% 0.00 in 0.00 W/m2
02:37 29.3 °F 24.8 °F 30.28 in Calm     83% 0.00 in 0.00 W/m2
02:42 29.2 °F 24.7 °F 30.28 in Calm     83% 0.00 in 0.00 W/m2
02:47 29.1 °F 24.6 °F 30.28 in Calm     83% 0.00 in 0.00 W/m2
02:52 28.9 °F 24.4 °F 30.28 in Calm     83% 0.00 in 0.00 W/m2
02:57 28.7 °F 24.2 °F 30.28 in Calm     83% 0.00 in 0.00 W/m2
03:02 28.6 °F 24.1 °F 30.28 in Calm     83% 0.00 in 0.00 W/m2
03:12 28.3 °F 23.8 °F 30.29 in Calm     83% 0.00 in 0.00 W/m2
03:22 28.0 °F 23.5 °F 30.29 in Calm     83% 0.00 in 0.00 W/m2
03:27 27.9 °F 23.4 °F 30.29 in NW 1.0 mph 1.0 mph 83% 0.00 in 0.00 W/m2
03:32 27.7 °F 23.5 °F 30.29 in Calm     84% 0.00 in 0.00 W/m2
03:37 27.6 °F 23.4 °F 30.29 in Calm     84% 0.00 in 0.00 W/m2
03:42 27.4 °F 23.2 °F 30.29 in Calm     84% 0.00 in 0.00 W/m2
03:47 27.3 °F 23.4 °F 30.28 in NW 1.0 mph 1.0 mph 85% 0.00 in 0.00 W/m2
03:52 27.2 °F 23.3 °F 30.28 in Calm     85% 0.00 in 0.00 W/m2
03:57 27.1 °F 23.2 °F 30.28 in Calm     85% 0.00 in 0.00 W/m2
04:11 26.9 °F 23.3 °F 30.28 in Calm     86% 0.00 in 0.00 W/m2
04:16 26.8 °F 23.2 °F 30.28 in Calm     86% 0.00 in 0.00 W/m2
04:21 26.7 °F 23.4 °F 30.28 in Calm     87% 0.00 in 0.00 W/m2
04:26 26.7 °F 23.4 °F 30.28 in Calm     87% 0.00 in 0.00 W/m2
SouthEast Lincoln Weather
Compliments of Weather Underground - 4 mb